createdAt,value
2022-12-26T00:02:19.006Z,2.72
2022-12-26T00:04:49.604Z,2.76
2022-12-26T00:07:22.169Z,2.81
2022-12-26T00:10:17.878Z,2.87
2022-12-26T00:12:47.835Z,2.93
2022-12-26T00:15:16.628Z,2.99
2022-12-26T00:18:09.844Z,3.06
2022-12-26T00:20:41.198Z,3.11
2022-12-26T00:23:10.140Z,3.16
2022-12-26T00:25:38.745Z,3.21
2022-12-26T00:28:08.749Z,3.27
2022-12-26T00:30:39.526Z,3.28
2022-12-26T00:33:07.967Z,3.28
2022-12-26T00:35:38.269Z,3.25
2022-12-26T00:38:08.119Z,3.31
2022-12-26T00:40:37.142Z,3.29
2022-12-26T00:43:05.749Z,3.25
2022-12-26T00:45:36.585Z,3.25
2022-12-26T00:48:05.310Z,3.20
2022-12-26T00:50:35.055Z,3.19
2022-12-26T00:53:03.531Z,3.18
2022-12-26T00:55:35.058Z,3.15
2022-12-26T00:58:54.123Z,3.19
2022-12-26T01:01:25.014Z,3.26
2022-12-26T01:03:53.863Z,3.34
2022-12-26T01:06:23.000Z,3.42
2022-12-26T01:08:51.788Z,3.48
2022-12-26T01:11:40.588Z,3.55
2022-12-26T01:14:32.348Z,3.62
2022-12-26T01:17:02.359Z,3.68
2022-12-26T01:19:30.810Z,3.73
2022-12-26T01:21:59.697Z,3.77
2022-12-26T01:24:28.772Z,3.80
2022-12-26T01:26:57.292Z,3.82
2022-12-26T01:29:26.474Z,3.41
2022-12-26T01:31:55.229Z,3.90
2022-12-26T01:34:25.580Z,3.95
2022-12-26T01:36:54.257Z,4.00
2022-12-26T01:39:23.464Z,4.03
2022-12-26T01:41:51.968Z,4.03
2022-12-26T01:45:09.018Z,4.06
2022-12-26T01:47:42.616Z,4.06
2022-12-26T01:50:28.620Z,4.06
2022-12-26T01:52:58.688Z,4.10
2022-12-26T01:55:27.431Z,4.10
2022-12-26T01:58:02.056Z,4.12
2022-12-26T02:00:31.197Z,4.15
2022-12-26T02:03:18.422Z,4.20
2022-12-26T02:05:48.325Z,4.20
2022-12-26T02:08:19.193Z,4.23
2022-12-26T02:10:50.082Z,4.25
2022-12-26T02:13:20.285Z,4.29
2022-12-26T02:15:51.232Z,4.32
2022-12-26T02:18:19.984Z,4.33
2022-12-26T02:21:04.836Z,4.33
2022-12-26T02:24:02.484Z,4.36
2022-12-26T02:26:54.068Z,4.34
2022-12-26T02:30:16.313Z,4.36
2022-12-26T02:33:14.533Z,4.37
2022-12-26T02:35:53.655Z,4.38
2022-12-26T02:38:30.738Z,4.39
2022-12-26T02:41:49.230Z,4.41
2022-12-26T02:44:40.383Z,4.41
2022-12-26T02:47:13.711Z,4.47
2022-12-26T02:50:14.292Z,4.49
2022-12-26T02:53:08.534Z,4.49
2022-12-26T02:55:57.552Z,4.52
2022-12-26T02:58:48.047Z,4.57
2022-12-26T03:01:48.752Z,4.56
2022-12-26T03:04:36.479Z,4.60
2022-12-26T03:07:27.247Z,4.59
2022-12-26T03:10:15.723Z,4.59
2022-12-26T03:13:06.134Z,4.61
2022-12-26T03:16:33.610Z,4.63
2022-12-26T03:19:05.509Z,4.63
2022-12-26T03:21:37.521Z,4.65
2022-12-26T03:24:09.567Z,4.64
2022-12-26T03:26:50.341Z,4.63
2022-12-26T03:29:38.520Z,4.58
2022-12-26T03:32:09.663Z,4.58
2022-12-26T03:34:43.090Z,4.57
2022-12-26T03:37:48.848Z,4.54
2022-12-26T03:41:10.793Z,4.63
2022-12-26T03:44:09.012Z,4.66
2022-12-26T03:47:02.960Z,4.65
2022-12-26T03:49:52.346Z,4.63
2022-12-26T03:52:42.129Z,4.64
2022-12-26T03:55:33.055Z,4.64
2022-12-26T03:58:25.059Z,4.63
2022-12-26T04:01:09.613Z,4.64
2022-12-26T04:03:57.191Z,4.62
2022-12-26T04:06:46.018Z,4.63
2022-12-26T04:09:36.074Z,4.65
2022-12-26T04:12:22.293Z,4.62
2022-12-26T04:15:12.127Z,4.63
2022-12-26T04:18:12.613Z,4.66
2022-12-26T04:20:47.774Z,4.68
2022-12-26T04:23:37.116Z,4.70
2022-12-26T04:26:25.932Z,4.68
2022-12-26T04:29:12.086Z,4.59
2022-12-26T04:32:04.196Z,4.43
2022-12-26T04:34:54.789Z,4.22
2022-12-26T04:37:43.506Z,4.17
2022-12-26T04:40:34.667Z,4.16
2022-12-26T04:43:48.153Z,4.21
2022-12-26T04:46:10.921Z,4.26
2022-12-26T04:49:01.114Z,4.28
2022-12-26T04:51:29.763Z,4.25
2022-12-26T04:53:58.366Z,4.24
2022-12-26T04:56:27.190Z,4.25
2022-12-26T04:58:55.522Z,4.29
2022-12-26T05:01:41.408Z,4.26
2022-12-26T05:04:32.221Z,4.21
2022-12-26T05:07:19.019Z,4.16
2022-12-26T05:09:50.806Z,4.01
2022-12-26T05:12:19.524Z,3.95
2022-12-26T05:14:48.147Z,3.86
2022-12-26T05:17:34.047Z,3.82
2022-12-26T05:21:09.850Z,3.75
2022-12-26T05:23:57.201Z,3.64
2022-12-26T05:26:48.723Z,3.57
2022-12-26T05:29:32.966Z,3.48
2022-12-26T05:32:04.424Z,3.44
2022-12-26T05:34:42.229Z,3.45
2022-12-26T05:37:10.772Z,3.47
2022-12-26T05:40:06.432Z,3.50
2022-12-26T05:42:34.991Z,3.49
2022-12-26T05:45:03.921Z,3.46
2022-12-26T05:47:32.644Z,3.46
2022-12-26T05:50:01.073Z,3.44
2022-12-26T05:52:29.720Z,3.44
2022-12-26T05:54:58.569Z,3.45
2022-12-26T05:57:28.803Z,3.44
2022-12-26T05:59:57.275Z,3.48
2022-12-26T06:02:26.341Z,3.50
2022-12-26T06:04:54.834Z,3.49
2022-12-26T06:07:33.234Z,3.47
2022-12-26T06:10:01.725Z,3.41
2022-12-26T06:12:32.031Z,3.45
2022-12-26T06:15:00.454Z,3.43
2022-12-26T06:17:29.714Z,3.43
2022-12-26T06:19:58.281Z,3.45
2022-12-26T06:22:35.632Z,3.47
2022-12-26T06:25:04.316Z,3.45
2022-12-26T06:27:34.688Z,3.43
2022-12-26T06:30:03.209Z,3.34
2022-12-26T06:32:31.657Z,3.43
2022-12-26T06:35:00.057Z,3.42
2022-12-26T06:37:28.844Z,3.37
2022-12-26T06:39:58.907Z,3.40
2022-12-26T06:42:27.861Z,3.40
2022-12-26T06:44:57.841Z,3.39
2022-12-26T06:47:26.153Z,3.42
2022-12-26T06:49:54.875Z,3.45
2022-12-26T06:52:23.700Z,3.43
2022-12-26T06:54:52.442Z,3.46
2022-12-26T06:57:20.875Z,3.45
2022-12-26T06:59:49.509Z,3.47
2022-12-26T07:02:19.590Z,3.49
2022-12-26T07:04:48.384Z,3.52
2022-12-26T07:07:16.789Z,3.53
2022-12-26T07:09:45.723Z,3.50
2022-12-26T07:12:20.893Z,3.54
2022-12-26T07:14:49.666Z,3.18
2022-12-26T07:17:34.408Z,3.68
2022-12-26T07:20:02.883Z,3.73
2022-12-26T07:22:31.419Z,3.77
2022-12-26T07:24:59.972Z,3.87
2022-12-26T07:27:28.635Z,3.96
2022-12-26T07:29:57.431Z,4.12
2022-12-26T07:32:25.920Z,4.24
2022-12-26T07:34:55.852Z,4.33
2022-12-26T07:37:24.500Z,4.37
2022-12-26T07:39:58.724Z,4.43
2022-12-26T07:42:27.880Z,4.52
2022-12-26T07:44:56.314Z,4.64
2022-12-26T07:47:24.594Z,4.68
2022-12-26T07:49:53.462Z,4.77
2022-12-26T07:52:23.276Z,4.90
2022-12-26T07:54:52.243Z,5.18
2022-12-26T07:57:47.482Z,5.69
2022-12-26T08:00:12.995Z,6.41
2022-12-26T08:02:41.723Z,7.26
2022-12-26T08:05:10.982Z,7.59
2022-12-26T08:07:41.530Z,7.32
2022-12-26T08:10:10.752Z,8.05
2022-12-26T08:12:39.774Z,9.58
2022-12-26T08:15:10.269Z,10.22
2022-12-26T08:17:38.924Z,10.12
2022-12-26T08:20:09.157Z,10.09
2022-12-26T08:22:40.466Z,10.97
2022-12-26T08:25:13.387Z,11.77
2022-12-26T08:27:46.386Z,12.16
2022-12-26T08:30:17.305Z,12.53
2022-12-26T08:32:46.468Z,12.64
2022-12-26T08:35:15.249Z,13.25
2022-12-26T08:37:44.424Z,14.54
2022-12-26T08:40:15.505Z,14.92
2022-12-26T08:43:11.758Z,15.37
2022-12-26T08:46:01.536Z,15.58
2022-12-26T08:48:30.266Z,15.62
2022-12-26T08:51:00.398Z,15.79
2022-12-26T08:53:32.959Z,15.13
2022-12-26T08:56:03.351Z,15.01
2022-12-26T08:58:32.127Z,16.14
2022-12-26T09:01:08.090Z,16.63
2022-12-26T09:03:36.779Z,16.89
2022-12-26T09:06:06.751Z,16.67
2022-12-26T09:08:36.315Z,16.24
2022-12-26T09:11:07.763Z,16.38
2022-12-26T09:13:37.492Z,15.96
2022-12-26T09:16:08.770Z,15.52
2022-12-26T09:19:00.980Z,15.17
2022-12-26T09:21:30.348Z,14.56
2022-12-26T09:24:00.318Z,14.34
2022-12-26T09:26:33.371Z,13.95
2022-12-26T09:29:01.883Z,13.23
2022-12-26T09:31:34.057Z,13.36
2022-12-26T09:34:04.445Z,13.60
2022-12-26T09:36:35.431Z,13.87
2022-12-26T09:39:04.256Z,14.26
2022-12-26T09:41:51.442Z,14.47
2022-12-26T09:44:23.427Z,14.80
2022-12-26T09:46:58.827Z,16.09
2022-12-26T09:49:31.165Z,17.46
2022-12-26T09:52:02.354Z,17.46
2022-12-26T09:54:34.810Z,18.16
2022-12-26T09:57:14.853Z,19.03
2022-12-26T09:59:47.941Z,19.58
2022-12-26T10:02:38.342Z,19.75
2022-12-26T10:05:07.880Z,20.31
2022-12-26T10:07:46.176Z,19.93
2022-12-26T10:10:16.100Z,18.74
2022-12-26T10:13:11.694Z,19.48
2022-12-26T10:16:02.002Z,19.82
2022-12-26T10:18:39.137Z,19.78
2022-12-26T10:21:23.694Z,19.96
2022-12-26T10:23:54.063Z,19.40
2022-12-26T10:26:25.799Z,18.22
2022-12-26T10:29:03.318Z,18.09
2022-12-26T10:31:35.305Z,18.70
2022-12-26T10:34:09.275Z,18.97
2022-12-26T10:36:41.412Z,18.20
2022-12-26T10:39:16.987Z,18.01
2022-12-26T10:41:48.561Z,18.22
2022-12-26T10:44:22.509Z,18.93
2022-12-26T10:47:06.984Z,20.64
2022-12-26T10:49:35.967Z,20.79
2022-12-26T10:52:05.214Z,21.31
2022-12-26T10:54:34.252Z,20.71
2022-12-26T10:57:03.490Z,20.84
2022-12-26T10:59:42.183Z,19.50
2022-12-26T11:02:22.186Z,19.22
2022-12-26T11:05:16.037Z,20.34
2022-12-26T11:07:59.965Z,21.19
2022-12-26T11:10:30.794Z,20.91
2022-12-26T11:13:02.511Z,19.94
2022-12-26T11:15:38.416Z,20.03
2022-12-26T11:18:17.407Z,20.42
2022-12-26T11:20:46.421Z,20.71
2022-12-26T11:23:22.981Z,21.23
2022-12-26T11:25:52.905Z,20.29
2022-12-26T11:28:27.238Z,20.39
2022-12-26T11:30:59.475Z,20.31
2022-12-26T11:33:30.347Z,20.01
2022-12-26T11:36:12.276Z,19.40
2022-12-26T11:38:49.401Z,18.46
2022-12-26T11:41:36.775Z,17.77
2022-12-26T11:44:15.124Z,17.46
2022-12-26T11:46:48.808Z,17.68
2022-12-26T11:49:24.405Z,17.59
2022-12-26T11:51:59.320Z,16.94
2022-12-26T11:54:31.818Z,16.32
2022-12-26T11:57:15.102Z,16.09
2022-12-26T11:59:43.990Z,15.55
2022-12-26T12:02:24.654Z,14.92
2022-12-26T12:04:55.729Z,14.82
2022-12-26T12:07:52.575Z,14.60
2022-12-26T12:10:47.979Z,14.53
2022-12-26T12:13:33.603Z,14.34
2022-12-26T12:16:08.953Z,14.28
2022-12-26T12:18:47.415Z,14.20
2022-12-26T12:21:20.456Z,14.22
2022-12-26T12:24:11.965Z,14.32
2022-12-26T12:26:48.438Z,14.51
2022-12-26T12:29:34.168Z,14.85
2022-12-26T12:32:10.481Z,14.72
2022-12-26T12:35:01.228Z,14.88
2022-12-26T12:37:39.376Z,14.80
2022-12-26T12:40:20.406Z,14.73
2022-12-26T12:42:52.714Z,14.62
2022-12-26T12:45:31.828Z,14.49
2022-12-26T12:48:21.575Z,14.84
2022-12-26T12:50:58.876Z,15.64
2022-12-26T12:56:37.097Z,17.32
2022-12-26T12:59:22.197Z,17.57
2022-12-26T13:01:53.517Z,18.19
2022-12-26T13:04:30.459Z,19.66
2022-12-26T13:07:06.524Z,19.31
2022-12-26T13:09:39.769Z,18.89
2022-12-26T13:12:17.953Z,19.50
2022-12-26T13:14:49.931Z,19.37
2022-12-26T13:17:23.253Z,18.96
2022-12-26T13:20:01.703Z,18.64
2022-12-26T13:22:54.780Z,16.74
2022-12-26T13:25:45.338Z,15.03
2022-12-26T13:28:20.361Z,14.71
2022-12-26T13:30:54.322Z,14.36
2022-12-26T13:33:23.386Z,14.10
2022-12-26T13:35:57.981Z,14.12
2022-12-26T13:39:08.654Z,14.01
2022-12-26T13:41:58.961Z,13.91
2022-12-26T13:44:28.792Z,13.74
2022-12-26T13:46:59.721Z,13.64
2022-12-26T13:49:30.935Z,13.70
2022-12-26T13:52:01.943Z,13.83
2022-12-26T13:54:32.831Z,13.82
2022-12-26T13:57:37.798Z,13.49
2022-12-26T14:00:27.234Z,13.16
2022-12-26T14:03:23.722Z,13.18
2022-12-26T14:06:25.504Z,12.93
2022-12-26T14:09:32.193Z,12.69
2022-12-26T14:12:30.212Z,12.54
2022-12-26T14:15:17.574Z,12.49
2022-12-26T14:17:54.056Z,12.42
2022-12-26T14:20:37.363Z,12.31
2022-12-26T14:23:26.783Z,12.43
2022-12-26T14:26:01.295Z,12.38
2022-12-26T14:28:35.089Z,12.23
2022-12-26T14:31:15.265Z,12.15
2022-12-26T14:33:50.392Z,11.98
2022-12-26T14:36:27.214Z,12.04
2022-12-26T14:39:00.252Z,11.91
2022-12-26T14:41:56.023Z,12.06
2022-12-26T14:44:46.554Z,11.76
2022-12-26T14:47:40.240Z,11.96
2022-12-26T14:50:40.542Z,12.18
2022-12-26T14:53:29.722Z,12.27
2022-12-26T14:56:33.298Z,12.25
2022-12-26T14:59:26.469Z,12.18
2022-12-26T15:02:08.605Z,12.14
2022-12-26T15:05:03.264Z,12.08
2022-12-26T15:08:17.643Z,12.13
2022-12-26T15:11:24.064Z,12.02
2022-12-26T15:14:22.953Z,11.99
2022-12-26T15:17:03.503Z,11.82
2022-12-26T15:19:55.856Z,11.76
2022-12-26T15:22:46.766Z,11.77
2022-12-26T15:25:52.517Z,11.79
2022-12-26T15:28:43.620Z,11.64
2022-12-26T15:31:32.231Z,11.53
2022-12-26T15:34:07.750Z,11.48
2022-12-26T15:36:45.186Z,11.45
2022-12-26T15:39:23.083Z,11.26
2022-12-26T15:41:59.949Z,11.13
2022-12-26T15:44:34.637Z,11.02
2022-12-26T15:47:14.684Z,11.06
2022-12-26T15:49:58.017Z,10.99
2022-12-26T15:52:38.703Z,10.93
2022-12-26T15:55:24.510Z,10.94
2022-12-26T15:57:59.529Z,10.85
2022-12-26T16:00:31.640Z,10.75
2022-12-26T16:03:20.623Z,10.81
2022-12-26T16:05:59.610Z,10.82
2022-12-26T16:08:50.399Z,10.72
2022-12-26T16:11:21.308Z,10.68
2022-12-26T16:14:02.825Z,10.59
2022-12-26T16:16:34.087Z,10.52
2022-12-26T16:19:19.279Z,10.62
2022-12-26T16:22:08.744Z,10.56
2022-12-26T16:24:39.603Z,10.47
2022-12-26T16:27:09.965Z,10.45
2022-12-26T16:29:46.134Z,10.43
2022-12-26T16:32:19.001Z,10.42
2022-12-26T16:34:48.215Z,10.38
2022-12-26T16:37:21.760Z,10.35
2022-12-26T16:40:09.551Z,10.30
2022-12-26T16:42:38.252Z,10.24
2022-12-26T16:45:18.632Z,10.19
2022-12-26T16:47:49.383Z,10.16
2022-12-26T16:50:20.623Z,10.14
2022-12-26T16:52:50.947Z,10.02
2022-12-26T16:55:34.425Z,9.89
2022-12-26T16:58:06.376Z,9.80
2022-12-26T17:00:35.003Z,9.80
2022-12-26T17:03:06.771Z,9.74
2022-12-26T17:05:38.296Z,9.65
2022-12-26T17:08:08.384Z,9.49
2022-12-26T17:10:40.599Z,9.51
2022-12-26T17:13:11.612Z,9.49
2022-12-26T17:15:49.050Z,9.37
2022-12-26T17:18:49.245Z,9.36
2022-12-26T17:21:30.277Z,9.29
2022-12-26T17:24:31.060Z,9.21
2022-12-26T17:27:16.723Z,9.16
2022-12-26T17:29:59.574Z,9.16
2022-12-26T17:32:37.287Z,9.09
2022-12-26T17:35:09.165Z,9.05
2022-12-26T17:37:38.186Z,9.05
2022-12-26T17:40:21.618Z,8.99
2022-12-26T17:42:53.452Z,9.01
2022-12-26T17:45:24.033Z,8.86
2022-12-26T17:47:53.400Z,8.76
2022-12-26T17:50:22.234Z,8.73
2022-12-26T17:52:53.264Z,8.64
2022-12-26T17:55:28.834Z,8.61
2022-12-26T17:57:57.337Z,8.61
2022-12-26T18:00:27.545Z,8.53
2022-12-26T18:02:57.438Z,8.54
2022-12-26T18:05:26.314Z,8.50
2022-12-26T18:07:55.226Z,8.38
2022-12-26T18:10:26.869Z,8.33
2022-12-26T18:13:01.651Z,8.26
2022-12-26T18:15:31.712Z,8.24
2022-12-26T18:18:03.306Z,8.19
2022-12-26T18:20:32.478Z,8.18
2022-12-26T18:23:01.504Z,8.09
2022-12-26T18:25:31.508Z,8.13
2022-12-26T18:28:01.145Z,8.12
2022-12-26T18:30:33.179Z,8.12
2022-12-26T18:33:04.037Z,8.15
2022-12-26T18:35:33.209Z,8.26
2022-12-26T18:38:02.693Z,8.20
2022-12-26T18:40:36.216Z,8.26
2022-12-26T18:43:55.140Z,8.16
2022-12-26T18:46:25.712Z,8.17
2022-12-26T18:48:56.942Z,8.18
2022-12-26T18:51:26.567Z,8.19
2022-12-26T18:54:04.449Z,8.23
2022-12-26T18:56:34.585Z,8.22
2022-12-26T18:59:03.412Z,8.22
2022-12-26T19:01:33.063Z,8.23
2022-12-26T19:04:02.023Z,8.29
2022-12-26T19:06:33.370Z,8.17
2022-12-26T19:09:02.259Z,8.17
2022-12-26T19:11:31.235Z,8.13
2022-12-26T19:14:02.788Z,8.13
2022-12-26T19:16:32.187Z,8.13
2022-12-26T19:19:01.042Z,8.27
2022-12-26T19:21:30.278Z,8.24
2022-12-26T19:23:59.074Z,8.23
2022-12-26T19:26:27.946Z,8.27
2022-12-26T19:28:58.096Z,8.28
2022-12-26T19:31:28.817Z,8.27
2022-12-26T19:33:59.348Z,8.34
2022-12-26T19:36:28.608Z,8.33
2022-12-26T19:38:57.879Z,8.33
2022-12-26T19:41:27.285Z,8.23
2022-12-26T19:43:59.737Z,8.38
2022-12-26T19:46:30.536Z,8.27
2022-12-26T19:48:59.428Z,8.27
2022-12-26T19:51:28.306Z,8.34
2022-12-26T19:53:57.411Z,8.35
2022-12-26T19:56:27.497Z,8.20
2022-12-26T19:58:57.214Z,8.23
2022-12-26T20:01:27.757Z,8.24
2022-12-26T20:03:59.251Z,8.23
2022-12-26T20:06:30.049Z,8.30
2022-12-26T20:09:00.962Z,8.31
2022-12-26T20:11:31.853Z,8.36
2022-12-26T20:14:01.921Z,8.38
2022-12-26T20:17:04.574Z,8.34
2022-12-26T20:19:21.604Z,8.37
2022-12-26T20:21:50.824Z,8.44
2022-12-26T20:24:21.759Z,8.47
2022-12-26T20:26:51.488Z,8.47
2022-12-26T20:29:20.352Z,8.42
2022-12-26T20:31:49.809Z,8.44
2022-12-26T20:34:47.717Z,8.39
2022-12-26T20:37:16.846Z,8.40
2022-12-26T20:39:46.389Z,8.44
2022-12-26T20:42:17.773Z,8.42
2022-12-26T20:44:49.266Z,8.45
2022-12-26T20:47:18.446Z,8.44
2022-12-26T20:49:48.536Z,8.45
2022-12-26T20:52:18.898Z,8.42
2022-12-26T20:54:47.576Z,8.43
2022-12-26T20:57:16.525Z,8.43
2022-12-26T20:59:45.649Z,8.45
2022-12-26T21:02:15.041Z,8.45
2022-12-26T21:04:44.218Z,8.38
2022-12-26T21:07:14.477Z,8.42
2022-12-26T21:09:46.387Z,8.47
2022-12-26T21:12:15.912Z,8.39
2022-12-26T21:14:45.013Z,8.42
2022-12-26T21:17:18.275Z,8.44
2022-12-26T21:19:47.541Z,8.39
2022-12-26T21:22:18.040Z,8.37
2022-12-26T21:24:47.109Z,8.42
2022-12-26T21:27:15.952Z,8.44
2022-12-26T21:29:45.074Z,8.47
2022-12-26T21:32:14.049Z,8.37
2022-12-26T21:34:42.931Z,8.41
2022-12-26T21:37:28.757Z,8.44
2022-12-26T21:39:59.143Z,8.39
2022-12-26T21:42:28.461Z,8.39
2022-12-26T21:44:57.440Z,8.46
2022-12-26T21:47:26.429Z,8.41
2022-12-26T21:50:04.577Z,8.46
2022-12-26T21:52:33.316Z,8.32
2022-12-26T21:58:14.024Z,8.22
2022-12-26T22:00:48.502Z,8.27
2022-12-26T22:03:34.772Z,8.24
2022-12-26T22:06:03.525Z,8.35
2022-12-26T22:08:34.605Z,8.36
2022-12-26T22:11:22.542Z,8.33
2022-12-26T22:13:51.223Z,8.39
2022-12-26T22:16:20.178Z,8.29
2022-12-26T22:18:49.697Z,8.20
2022-12-26T22:21:20.573Z,8.15
2022-12-26T22:23:50.925Z,8.16
2022-12-26T22:26:22.212Z,8.22
2022-12-26T22:28:51.272Z,8.20
2022-12-26T22:31:21.446Z,8.27
2022-12-26T22:33:52.539Z,8.26
2022-12-26T22:36:21.621Z,8.24
2022-12-26T22:39:02.797Z,8.26
2022-12-26T22:41:39.000Z,8.18
2022-12-26T22:44:08.623Z,8.17
2022-12-26T22:46:37.759Z,8.10
2022-12-26T22:49:07.259Z,8.10
2022-12-26T22:51:35.928Z,8.13
2022-12-26T22:54:05.126Z,8.13
2022-12-26T22:56:35.756Z,8.09
2022-12-26T22:59:04.663Z,8.07
2022-12-26T23:01:34.020Z,8.11
2022-12-26T23:04:03.946Z,7.97
2022-12-26T23:06:35.254Z,8.00
2022-12-26T23:09:07.137Z,7.83
2022-12-26T23:11:38.158Z,7.93
2022-12-26T23:14:08.613Z,7.91
2022-12-26T23:17:02.834Z,7.90
2022-12-26T23:19:58.138Z,7.83
2022-12-26T23:22:27.231Z,7.82
2022-12-26T23:24:58.115Z,7.81
2022-12-26T23:27:45.498Z,7.82
2022-12-26T23:30:20.133Z,7.76
2022-12-26T23:32:51.149Z,7.73
2022-12-26T23:35:21.038Z,7.68
2022-12-26T23:37:49.572Z,7.59
2022-12-26T23:40:19.774Z,7.60
2022-12-26T23:42:50.160Z,7.63
2022-12-26T23:45:18.862Z,7.62
2022-12-26T23:47:47.357Z,7.64
2022-12-26T23:50:17.392Z,7.60
2022-12-26T23:52:46.293Z,7.68
2022-12-26T23:55:15.447Z,7.66
2022-12-26T23:57:44.220Z,7.66
